sensor_id;sensor_type;location;lat;lon;timestamp;P1;durP1;ratioP1;P2;durP2;ratioP2
3849;SDS011;1940;51.052;13.678;2024-03-22T00:00:30;11.23;;;6.30;;
3849;SDS011;1940;51.052;13.678;2024-03-22T00:02:55;15.50;;;8.07;;
3849;SDS011;1940;51.052;13.678;2024-03-22T00:05:21;11.30;;;6.20;;
3849;SDS011;1940;51.052;13.678;2024-03-22T00:07:47;12.57;;;6.83;;
3849;SDS011;1940;51.052;13.678;2024-03-22T00:10:13;13.23;;;6.90;;
3849;SDS011;1940;51.052;13.678;2024-03-22T00:12:38;10.80;;;6.33;;
3849;SDS011;1940;51.052;13.678;2024-03-22T00:15:04;12.00;;;6.83;;
3849;SDS011;1940;51.052;13.678;2024-03-22T00:17:30;13.60;;;7.30;;
3849;SDS011;1940;51.052;13.678;2024-03-22T00:19:56;14.13;;;7.10;;
3849;SDS011;1940;51.052;13.678;2024-03-22T00:22:21;17.93;;;7.00;;
3849;SDS011;1940;51.052;13.678;2024-03-22T00:24:47;14.70;;;7.67;;
3849;SDS011;1940;51.052;13.678;2024-03-22T00:27:12;13.30;;;7.13;;
3849;SDS011;1940;51.052;13.678;2024-03-22T00:29:38;16.10;;;7.60;;
3849;SDS011;1940;51.052;13.678;2024-03-22T00:32:04;13.87;;;7.00;;
3849;SDS011;1940;51.052;13.678;2024-03-22T00:34:30;16.00;;;7.67;;
3849;SDS011;1940;51.052;13.678;2024-03-22T00:36:55;11.40;;;6.80;;
3849;SDS011;1940;51.052;13.678;2024-03-22T00:39:20;13.00;;;6.90;;
3849;SDS011;1940;51.052;13.678;2024-03-22T00:41:46;14.20;;;7.30;;
3849;SDS011;1940;51.052;13.678;2024-03-22T00:44:11;18.70;;;7.07;;
3849;SDS011;1940;51.052;13.678;2024-03-22T00:46:37;14.10;;;6.87;;
3849;SDS011;1940;51.052;13.678;2024-03-22T00:49:02;18.40;;;7.13;;
3849;SDS011;1940;51.052;13.678;2024-03-22T00:51:28;14.00;;;7.77;;
3849;SDS011;1940;51.052;13.678;2024-03-22T00:53:54;10.73;;;6.30;;
3849;SDS011;1940;51.052;13.678;2024-03-22T00:56:19;13.40;;;7.10;;
3849;SDS011;1940;51.052;13.678;2024-03-22T00:58:45;14.53;;;7.10;;
3849;SDS011;1940;51.052;13.678;2024-03-22T01:01:10;13.10;;;7.50;;
3849;SDS011;1940;51.052;13.678;2024-03-22T01:03:36;13.10;;;7.13;;
3849;SDS011;1940;51.052;13.678;2024-03-22T01:06:01;12.47;;;6.43;;
3849;SDS011;1940;51.052;13.678;2024-03-22T01:08:27;18.67;;;7.00;;
3849;SDS011;1940;51.052;13.678;2024-03-22T01:10:53;14.17;;;7.50;;
3849;SDS011;1940;51.052;13.678;2024-03-22T01:13:18;12.70;;;7.00;;
3849;SDS011;1940;51.052;13.678;2024-03-22T01:15:43;15.40;;;7.00;;
3849;SDS011;1940;51.052;13.678;2024-03-22T01:18:11;16.43;;;7.83;;
3849;SDS011;1940;51.052;13.678;2024-03-22T01:20:37;14.30;;;6.83;;
3849;SDS011;1940;51.052;13.678;2024-03-22T01:23:03;13.23;;;7.23;;
3849;SDS011;1940;51.052;13.678;2024-03-22T01:25:29;15.50;;;7.50;;
3849;SDS011;1940;51.052;13.678;2024-03-22T01:27:55;18.63;;;7.27;;
3849;SDS011;1940;51.052;13.678;2024-03-22T01:30:21;11.87;;;6.97;;
3849;SDS011;1940;51.052;13.678;2024-03-22T01:32:47;17.70;;;7.20;;
3849;SDS011;1940;51.052;13.678;2024-03-22T01:35:12;14.47;;;7.70;;
3849;SDS011;1940;51.052;13.678;2024-03-22T01:37:37;13.43;;;6.90;;
3849;SDS011;1940;51.052;13.678;2024-03-22T01:40:03;16.30;;;7.60;;
3849;SDS011;1940;51.052;13.678;2024-03-22T01:42:29;13.80;;;7.20;;
3849;SDS011;1940;51.052;13.678;2024-03-22T01:44:55;14.40;;;7.33;;
3849;SDS011;1940;51.052;13.678;2024-03-22T01:47:21;14.20;;;7.37;;
3849;SDS011;1940;51.052;13.678;2024-03-22T01:49:47;17.63;;;7.73;;
3849;SDS011;1940;51.052;13.678;2024-03-22T01:52:15;12.63;;;7.00;;
3849;SDS011;1940;51.052;13.678;2024-03-22T01:54:41;17.23;;;7.70;;
3849;SDS011;1940;51.052;13.678;2024-03-22T01:57:06;12.60;;;6.70;;
3849;SDS011;1940;51.052;13.678;2024-03-22T01:59:32;12.47;;;6.93;;
3849;SDS011;1940;51.052;13.678;2024-03-22T02:01:58;12.97;;;6.87;;
3849;SDS011;1940;51.052;13.678;2024-03-22T02:04:24;13.77;;;6.87;;
3849;SDS011;1940;51.052;13.678;2024-03-22T02:06:49;17.90;;;7.77;;
3849;SDS011;1940;51.052;13.678;2024-03-22T02:09:15;14.73;;;7.90;;
3849;SDS011;1940;51.052;13.678;2024-03-22T02:11:40;15.60;;;8.23;;
3849;SDS011;1940;51.052;13.678;2024-03-22T02:14:06;14.23;;;7.70;;
3849;SDS011;1940;51.052;13.678;2024-03-22T02:16:32;15.57;;;7.17;;
3849;SDS011;1940;51.052;13.678;2024-03-22T02:18:57;11.93;;;6.80;;
3849;SDS011;1940;51.052;13.678;2024-03-22T02:21:23;14.30;;;7.40;;
3849;SDS011;1940;51.052;13.678;2024-03-22T02:23:48;13.80;;;7.30;;
3849;SDS011;1940;51.052;13.678;2024-03-22T02:26:14;18.20;;;8.30;;
3849;SDS011;1940;51.052;13.678;2024-03-22T02:28:39;14.60;;;8.13;;
3849;SDS011;1940;51.052;13.678;2024-03-22T02:31:05;16.40;;;7.87;;
3849;SDS011;1940;51.052;13.678;2024-03-22T02:33:30;13.80;;;7.83;;
3849;SDS011;1940;51.052;13.678;2024-03-22T02:35:56;16.43;;;7.90;;
3849;SDS011;1940;51.052;13.678;2024-03-22T02:38:21;14.83;;;7.63;;
3849;SDS011;1940;51.052;13.678;2024-03-22T02:40:48;17.67;;;8.07;;
3849;SDS011;1940;51.052;13.678;2024-03-22T02:43:15;15.17;;;8.23;;
3849;SDS011;1940;51.052;13.678;2024-03-22T02:45:42;14.60;;;8.10;;
3849;SDS011;1940;51.052;13.678;2024-03-22T02:48:08;17.23;;;9.30;;
3849;SDS011;1940;51.052;13.678;2024-03-22T02:50:33;17.90;;;8.37;;
3849;SDS011;1940;51.052;13.678;2024-03-22T02:52:59;16.13;;;7.90;;
3849;SDS011;1940;51.052;13.678;2024-03-22T02:55:25;18.40;;;8.70;;
3849;SDS011;1940;51.052;13.678;2024-03-22T02:57:51;17.53;;;8.97;;
3849;SDS011;1940;51.052;13.678;2024-03-22T03:00:16;15.40;;;8.37;;
3849;SDS011;1940;51.052;13.678;2024-03-22T03:02:43;14.27;;;8.20;;
3849;SDS011;1940;51.052;13.678;2024-03-22T03:05:08;16.27;;;8.47;;
3849;SDS011;1940;51.052;13.678;2024-03-22T03:07:34;14.33;;;7.60;;
3849;SDS011;1940;51.052;13.678;2024-03-22T03:10:00;15.40;;;8.90;;
3849;SDS011;1940;51.052;13.678;2024-03-22T03:12:26;15.73;;;8.80;;
3849;SDS011;1940;51.052;13.678;2024-03-22T03:14:51;20.30;;;8.77;;
3849;SDS011;1940;51.052;13.678;2024-03-22T03:17:16;17.20;;;9.03;;
3849;SDS011;1940;51.052;13.678;2024-03-22T03:19:42;17.10;;;8.77;;
3849;SDS011;1940;51.052;13.678;2024-03-22T03:22:07;18.90;;;8.70;;
3849;SDS011;1940;51.052;13.678;2024-03-22T03:24:33;17.67;;;9.60;;
3849;SDS011;1940;51.052;13.678;2024-03-22T03:26:58;17.30;;;8.80;;
3849;SDS011;1940;51.052;13.678;2024-03-22T03:29:24;17.80;;;9.33;;
3849;SDS011;1940;51.052;13.678;2024-03-22T03:31:49;18.83;;;9.50;;
3849;SDS011;1940;51.052;13.678;2024-03-22T03:34:15;19.27;;;8.50;;
3849;SDS011;1940;51.052;13.678;2024-03-22T03:36:40;14.40;;;8.50;;
3849;SDS011;1940;51.052;13.678;2024-03-22T03:39:06;17.30;;;8.73;;
3849;SDS011;1940;51.052;13.678;2024-03-22T03:41:31;18.37;;;8.50;;
3849;SDS011;1940;51.052;13.678;2024-03-22T03:43:57;16.87;;;9.30;;
3849;SDS011;1940;51.052;13.678;2024-03-22T03:46:22;17.30;;;8.73;;
3849;SDS011;1940;51.052;13.678;2024-03-22T03:48:48;19.20;;;8.97;;
3849;SDS011;1940;51.052;13.678;2024-03-22T03:51:13;17.00;;;8.90;;
3849;SDS011;1940;51.052;13.678;2024-03-22T03:53:39;17.53;;;8.67;;
3849;SDS011;1940;51.052;13.678;2024-03-22T03:56:04;18.43;;;9.30;;
3849;SDS011;1940;51.052;13.678;2024-03-22T03:58:30;18.23;;;9.40;;
3849;SDS011;1940;51.052;13.678;2024-03-22T04:00:55;19.57;;;9.23;;
3849;SDS011;1940;51.052;13.678;2024-03-22T04:03:21;16.80;;;9.00;;
3849;SDS011;1940;51.052;13.678;2024-03-22T04:05:55;19.77;;;9.93;;
3849;SDS011;1940;51.052;13.678;2024-03-22T04:08:22;19.57;;;9.40;;
3849;SDS011;1940;51.052;13.678;2024-03-22T04:10:53;23.10;;;9.70;;
3849;SDS011;1940;51.052;13.678;2024-03-22T04:13:23;19.97;;;10.03;;
3849;SDS011;1940;51.052;13.678;2024-03-22T04:15:49;18.60;;;9.10;;
3849;SDS011;1940;51.052;13.678;2024-03-22T04:18:15;16.60;;;8.93;;
3849;SDS011;1940;51.052;13.678;2024-03-22T04:20:42;21.27;;;10.10;;
3849;SDS011;1940;51.052;13.678;2024-03-22T04:23:08;18.50;;;9.53;;
3849;SDS011;1940;51.052;13.678;2024-03-22T04:25:34;21.03;;;9.87;;
3849;SDS011;1940;51.052;13.678;2024-03-22T04:27:59;16.73;;;8.90;;
3849;SDS011;1940;51.052;13.678;2024-03-22T04:30:25;17.93;;;8.50;;
3849;SDS011;1940;51.052;13.678;2024-03-22T04:32:50;22.03;;;9.97;;
3849;SDS011;1940;51.052;13.678;2024-03-22T04:35:16;20.40;;;10.07;;
3849;SDS011;1940;51.052;13.678;2024-03-22T04:37:41;15.23;;;8.17;;
3849;SDS011;1940;51.052;13.678;2024-03-22T04:40:07;16.57;;;8.43;;
3849;SDS011;1940;51.052;13.678;2024-03-22T04:42:34;19.40;;;9.07;;
3849;SDS011;1940;51.052;13.678;2024-03-22T04:45:00;17.80;;;9.07;;
3849;SDS011;1940;51.052;13.678;2024-03-22T04:47:25;21.27;;;9.77;;
3849;SDS011;1940;51.052;13.678;2024-03-22T04:49:51;17.63;;;8.87;;
3849;SDS011;1940;51.052;13.678;2024-03-22T04:52:17;19.73;;;9.70;;
3849;SDS011;1940;51.052;13.678;2024-03-22T04:54:42;18.13;;;8.90;;
3849;SDS011;1940;51.052;13.678;2024-03-22T04:57:08;20.13;;;10.10;;
3849;SDS011;1940;51.052;13.678;2024-03-22T04:59:33;17.63;;;9.00;;
3849;SDS011;1940;51.052;13.678;2024-03-22T05:01:59;16.03;;;8.57;;
3849;SDS011;1940;51.052;13.678;2024-03-22T05:04:24;17.70;;;8.90;;
3849;SDS011;1940;51.052;13.678;2024-03-22T05:06:50;17.33;;;8.80;;
3849;SDS011;1940;51.052;13.678;2024-03-22T05:09:15;16.77;;;9.37;;
3849;SDS011;1940;51.052;13.678;2024-03-22T05:11:41;22.07;;;10.30;;
3849;SDS011;1940;51.052;13.678;2024-03-22T05:14:06;19.77;;;10.73;;
3849;SDS011;1940;51.052;13.678;2024-03-22T05:16:32;19.17;;;9.90;;
3849;SDS011;1940;51.052;13.678;2024-03-22T05:18:57;19.23;;;9.77;;
3849;SDS011;1940;51.052;13.678;2024-03-22T05:21:23;21.23;;;8.90;;
3849;SDS011;1940;51.052;13.678;2024-03-22T05:23:49;17.63;;;9.33;;
3849;SDS011;1940;51.052;13.678;2024-03-22T05:26:14;17.60;;;9.27;;
3849;SDS011;1940;51.052;13.678;2024-03-22T05:28:40;21.20;;;9.80;;
3849;SDS011;1940;51.052;13.678;2024-03-22T05:31:05;17.07;;;8.17;;
3849;SDS011;1940;51.052;13.678;2024-03-22T05:33:31;16.30;;;8.53;;
3849;SDS011;1940;51.052;13.678;2024-03-22T05:35:57;17.97;;;8.20;;
3849;SDS011;1940;51.052;13.678;2024-03-22T05:38:22;15.63;;;8.20;;
3849;SDS011;1940;51.052;13.678;2024-03-22T05:40:48;12.90;;;6.93;;
3849;SDS011;1940;51.052;13.678;2024-03-22T05:43:13;18.90;;;9.07;;
3849;SDS011;1940;51.052;13.678;2024-03-22T05:45:39;16.03;;;9.57;;
3849;SDS011;1940;51.052;13.678;2024-03-22T05:48:04;12.80;;;8.10;;
3849;SDS011;1940;51.052;13.678;2024-03-22T05:50:30;13.00;;;6.80;;
3849;SDS011;1940;51.052;13.678;2024-03-22T05:52:56;11.50;;;6.53;;
3849;SDS011;1940;51.052;13.678;2024-03-22T05:55:21;13.03;;;7.93;;
3849;SDS011;1940;51.052;13.678;2024-03-22T05:57:47;10.30;;;5.73;;
3849;SDS011;1940;51.052;13.678;2024-03-22T06:00:12;9.23;;;5.53;;
3849;SDS011;1940;51.052;13.678;2024-03-22T06:02:38;12.50;;;6.47;;
3849;SDS011;1940;51.052;13.678;2024-03-22T06:05:04;7.10;;;5.10;;
3849;SDS011;1940;51.052;13.678;2024-03-22T06:07:30;12.80;;;5.67;;
3849;SDS011;1940;51.052;13.678;2024-03-22T06:10:00;10.47;;;5.43;;
3849;SDS011;1940;51.052;13.678;2024-03-22T06:12:26;9.10;;;5.13;;
3849;SDS011;1940;51.052;13.678;2024-03-22T06:14:51;10.20;;;5.47;;
3849;SDS011;1940;51.052;13.678;2024-03-22T06:17:16;10.60;;;7.13;;
3849;SDS011;1940;51.052;13.678;2024-03-22T06:19:42;9.90;;;6.10;;
3849;SDS011;1940;51.052;13.678;2024-03-22T06:22:07;14.60;;;6.50;;
3849;SDS011;1940;51.052;13.678;2024-03-22T06:24:33;11.83;;;6.83;;
3849;SDS011;1940;51.052;13.678;2024-03-22T06:26:58;7.10;;;4.90;;
3849;SDS011;1940;51.052;13.678;2024-03-22T06:29:24;8.60;;;5.47;;
3849;SDS011;1940;51.052;13.678;2024-03-22T06:31:49;9.70;;;5.50;;
3849;SDS011;1940;51.052;13.678;2024-03-22T06:34:15;7.37;;;4.90;;
3849;SDS011;1940;51.052;13.678;2024-03-22T06:36:41;6.40;;;4.47;;
3849;SDS011;1940;51.052;13.678;2024-03-22T06:39:06;5.90;;;3.80;;
3849;SDS011;1940;51.052;13.678;2024-03-22T06:41:34;8.67;;;5.10;;
3849;SDS011;1940;51.052;13.678;2024-03-22T06:43:59;8.97;;;5.03;;
3849;SDS011;1940;51.052;13.678;2024-03-22T06:46:25;9.20;;;5.47;;
3849;SDS011;1940;51.052;13.678;2024-03-22T06:48:51;7.20;;;4.57;;
3849;SDS011;1940;51.052;13.678;2024-03-22T06:51:17;6.67;;;4.53;;
3849;SDS011;1940;51.052;13.678;2024-03-22T06:53:43;7.70;;;4.87;;
3849;SDS011;1940;51.052;13.678;2024-03-22T06:56:08;10.13;;;5.23;;
3849;SDS011;1940;51.052;13.678;2024-03-22T06:58:35;6.67;;;4.57;;
3849;SDS011;1940;51.052;13.678;2024-03-22T07:01:01;7.37;;;4.87;;
3849;SDS011;1940;51.052;13.678;2024-03-22T07:03:26;10.37;;;5.90;;
3849;SDS011;1940;51.052;13.678;2024-03-22T07:05:52;8.70;;;4.67;;
3849;SDS011;1940;51.052;13.678;2024-03-22T07:08:17;9.43;;;5.10;;
3849;SDS011;1940;51.052;13.678;2024-03-22T07:10:43;11.80;;;5.23;;
3849;SDS011;1940;51.052;13.678;2024-03-22T07:13:10;9.13;;;5.17;;
3849;SDS011;1940;51.052;13.678;2024-03-22T07:15:35;11.00;;;5.40;;
3849;SDS011;1940;51.052;13.678;2024-03-22T07:18:01;7.30;;;4.90;;
3849;SDS011;1940;51.052;13.678;2024-03-22T07:20:27;7.70;;;4.33;;
3849;SDS011;1940;51.052;13.678;2024-03-22T07:22:53;11.13;;;5.37;;
3849;SDS011;1940;51.052;13.678;2024-03-22T07:25:18;11.23;;;5.50;;
3849;SDS011;1940;51.052;13.678;2024-03-22T07:27:44;8.43;;;4.97;;
3849;SDS011;1940;51.052;13.678;2024-03-22T07:30:11;7.50;;;4.47;;
3849;SDS011;1940;51.052;13.678;2024-03-22T07:32:36;8.00;;;4.90;;
3849;SDS011;1940;51.052;13.678;2024-03-22T07:35:02;8.43;;;4.60;;
3849;SDS011;1940;51.052;13.678;2024-03-22T07:37:28;8.70;;;5.00;;
3849;SDS011;1940;51.052;13.678;2024-03-22T07:39:53;7.73;;;5.07;;
3849;SDS011;1940;51.052;13.678;2024-03-22T07:42:19;9.13;;;5.20;;
3849;SDS011;1940;51.052;13.678;2024-03-22T07:44:45;9.50;;;4.70;;
3849;SDS011;1940;51.052;13.678;2024-03-22T07:47:11;11.87;;;5.37;;
3849;SDS011;1940;51.052;13.678;2024-03-22T07:49:36;9.47;;;5.20;;
3849;SDS011;1940;51.052;13.678;2024-03-22T07:52:02;8.67;;;5.60;;
3849;SDS011;1940;51.052;13.678;2024-03-22T07:54:27;13.10;;;6.20;;
3849;SDS011;1940;51.052;13.678;2024-03-22T07:56:53;11.67;;;6.10;;
3849;SDS011;1940;51.052;13.678;2024-03-22T07:59:18;11.70;;;6.30;;
3849;SDS011;1940;51.052;13.678;2024-03-22T08:01:44;14.03;;;6.90;;
3849;SDS011;1940;51.052;13.678;2024-03-22T08:04:09;13.47;;;6.97;;
3849;SDS011;1940;51.052;13.678;2024-03-22T08:06:35;13.03;;;7.70;;
3849;SDS011;1940;51.052;13.678;2024-03-22T08:09:00;14.97;;;7.30;;
3849;SDS011;1940;51.052;13.678;2024-03-22T08:11:27;14.67;;;7.80;;
3849;SDS011;1940;51.052;13.678;2024-03-22T08:13:53;14.30;;;7.77;;
3849;SDS011;1940;51.052;13.678;2024-03-22T08:16:26;14.20;;;7.13;;
3849;SDS011;1940;51.052;13.678;2024-03-22T08:18:52;11.50;;;6.53;;
3849;SDS011;1940;51.052;13.678;2024-03-22T08:21:17;12.47;;;7.03;;
3849;SDS011;1940;51.052;13.678;2024-03-22T08:23:43;13.63;;;7.00;;
3849;SDS011;1940;51.052;13.678;2024-03-22T08:26:08;14.07;;;7.00;;
3849;SDS011;1940;51.052;13.678;2024-03-22T08:28:34;12.70;;;7.20;;
3849;SDS011;1940;51.052;13.678;2024-03-22T08:31:03;12.90;;;7.10;;
3849;SDS011;1940;51.052;13.678;2024-03-22T08:33:29;12.37;;;6.53;;
3849;SDS011;1940;51.052;13.678;2024-03-22T08:35:54;12.37;;;6.80;;
3849;SDS011;1940;51.052;13.678;2024-03-22T08:38:20;9.67;;;5.90;;
3849;SDS011;1940;51.052;13.678;2024-03-22T08:40:45;15.03;;;6.83;;
3849;SDS011;1940;51.052;13.678;2024-03-22T08:43:11;18.67;;;7.27;;
3849;SDS011;1940;51.052;13.678;2024-03-22T08:45:36;12.17;;;6.43;;
3849;SDS011;1940;51.052;13.678;2024-03-22T08:48:02;11.87;;;6.67;;
3849;SDS011;1940;51.052;13.678;2024-03-22T08:50:28;10.67;;;6.30;;
3849;SDS011;1940;51.052;13.678;2024-03-22T08:52:53;11.73;;;6.30;;
3849;SDS011;1940;51.052;13.678;2024-03-22T08:55:19;10.00;;;5.57;;
3849;SDS011;1940;51.052;13.678;2024-03-22T08:57:44;12.77;;;6.67;;
3849;SDS011;1940;51.052;13.678;2024-03-22T09:00:10;10.33;;;5.80;;
3849;SDS011;1940;51.052;13.678;2024-03-22T09:02:36;11.73;;;6.20;;
3849;SDS011;1940;51.052;13.678;2024-03-22T09:05:02;14.63;;;6.13;;
3849;SDS011;1940;51.052;13.678;2024-03-22T09:07:28;8.63;;;5.13;;
3849;SDS011;1940;51.052;13.678;2024-03-22T09:09:54;9.10;;;5.37;;
3849;SDS011;1940;51.052;13.678;2024-03-22T09:12:19;8.17;;;4.87;;
3849;SDS011;1940;51.052;13.678;2024-03-22T09:14:45;10.50;;;5.50;;
3849;SDS011;1940;51.052;13.678;2024-03-22T09:17:11;7.23;;;4.40;;
3849;SDS011;1940;51.052;13.678;2024-03-22T09:19:36;9.43;;;5.03;;
3849;SDS011;1940;51.052;13.678;2024-03-22T09:22:02;8.63;;;5.20;;
3849;SDS011;1940;51.052;13.678;2024-03-22T09:24:28;7.70;;;4.73;;
3849;SDS011;1940;51.052;13.678;2024-03-22T09:26:53;10.23;;;5.60;;
3849;SDS011;1940;51.052;13.678;2024-03-22T09:29:19;10.33;;;5.83;;
3849;SDS011;1940;51.052;13.678;2024-03-22T09:31:44;7.90;;;4.87;;
3849;SDS011;1940;51.052;13.678;2024-03-22T09:34:11;10.47;;;5.60;;
3849;SDS011;1940;51.052;13.678;2024-03-22T09:36:37;10.20;;;4.47;;
3849;SDS011;1940;51.052;13.678;2024-03-22T09:39:03;9.67;;;5.27;;
3849;SDS011;1940;51.052;13.678;2024-03-22T09:41:29;7.90;;;4.53;;
3849;SDS011;1940;51.052;13.678;2024-03-22T09:43:57;10.83;;;4.60;;
3849;SDS011;1940;51.052;13.678;2024-03-22T09:46:25;11.00;;;6.00;;
3849;SDS011;1940;51.052;13.678;2024-03-22T09:48:52;8.50;;;4.53;;
3849;SDS011;1940;51.052;13.678;2024-03-22T09:51:18;7.80;;;4.20;;
3849;SDS011;1940;51.052;13.678;2024-03-22T09:53:44;9.93;;;5.53;;
3849;SDS011;1940;51.052;13.678;2024-03-22T09:56:10;7.20;;;4.10;;
3849;SDS011;1940;51.052;13.678;2024-03-22T09:58:39;6.70;;;4.03;;
3849;SDS011;1940;51.052;13.678;2024-03-22T10:01:08;6.97;;;3.80;;
3849;SDS011;1940;51.052;13.678;2024-03-22T10:03:34;7.10;;;4.50;;
3849;SDS011;1940;51.052;13.678;2024-03-22T10:06:01;7.50;;;4.40;;
3849;SDS011;1940;51.052;13.678;2024-03-22T10:08:27;9.20;;;4.50;;
3849;SDS011;1940;51.052;13.678;2024-03-22T10:10:52;7.67;;;4.83;;
3849;SDS011;1940;51.052;13.678;2024-03-22T10:13:18;8.40;;;4.80;;
3849;SDS011;1940;51.052;13.678;2024-03-22T10:15:43;8.40;;;4.60;;
3849;SDS011;1940;51.052;13.678;2024-03-22T10:18:09;7.83;;;4.50;;
3849;SDS011;1940;51.052;13.678;2024-03-22T10:20:35;8.73;;;4.40;;
3849;SDS011;1940;51.052;13.678;2024-03-22T10:23:00;7.80;;;4.60;;
3849;SDS011;1940;51.052;13.678;2024-03-22T10:25:26;8.07;;;4.23;;
3849;SDS011;1940;51.052;13.678;2024-03-22T10:27:55;7.07;;;4.33;;
3849;SDS011;1940;51.052;13.678;2024-03-22T10:30:22;7.67;;;4.37;;
3849;SDS011;1940;51.052;13.678;2024-03-22T10:32:49;6.27;;;3.80;;
3849;SDS011;1940;51.052;13.678;2024-03-22T10:35:15;6.70;;;4.03;;
3849;SDS011;1940;51.052;13.678;2024-03-22T10:37:41;5.47;;;4.07;;
3849;SDS011;1940;51.052;13.678;2024-03-22T10:40:08;13.40;;;4.07;;
3849;SDS011;1940;51.052;13.678;2024-03-22T10:42:35;6.07;;;4.30;;
3849;SDS011;1940;51.052;13.678;2024-03-22T10:45:01;12.73;;;4.20;;
3849;SDS011;1940;51.052;13.678;2024-03-22T10:47:29;5.80;;;3.87;;
3849;SDS011;1940;51.052;13.678;2024-03-22T10:49:58;10.80;;;4.07;;
3849;SDS011;1940;51.052;13.678;2024-03-22T10:52:36;16.63;;;4.53;;
3849;SDS011;1940;51.052;13.678;2024-03-22T10:55:05;7.37;;;4.10;;
3849;SDS011;1940;51.052;13.678;2024-03-22T10:57:33;5.83;;;3.57;;
3849;SDS011;1940;51.052;13.678;2024-03-22T11:00:02;6.87;;;3.93;;
3849;SDS011;1940;51.052;13.678;2024-03-22T11:02:34;7.23;;;4.10;;
3849;SDS011;1940;51.052;13.678;2024-03-22T11:05:00;7.50;;;3.43;;
3849;SDS011;1940;51.052;13.678;2024-03-22T11:07:29;6.87;;;4.30;;
3849;SDS011;1940;51.052;13.678;2024-03-22T11:10:01;7.00;;;4.10;;
3849;SDS011;1940;51.052;13.678;2024-03-22T11:12:31;6.60;;;3.80;;
3849;SDS011;1940;51.052;13.678;2024-03-22T11:14:58;5.70;;;3.90;;
3849;SDS011;1940;51.052;13.678;2024-03-22T11:17:24;7.83;;;3.63;;
3849;SDS011;1940;51.052;13.678;2024-03-22T11:19:50;6.33;;;4.10;;
3849;SDS011;1940;51.052;13.678;2024-03-22T11:22:16;7.50;;;4.20;;
3849;SDS011;1940;51.052;13.678;2024-03-22T11:24:42;5.40;;;3.90;;
3849;SDS011;1940;51.052;13.678;2024-03-22T11:27:08;9.90;;;4.43;;
3849;SDS011;1940;51.052;13.678;2024-03-22T11:29:36;6.87;;;4.07;;
3849;SDS011;1940;51.052;13.678;2024-03-22T11:32:06;7.47;;;4.37;;
3849;SDS011;1940;51.052;13.678;2024-03-22T11:34:34;5.47;;;3.80;;
3849;SDS011;1940;51.052;13.678;2024-03-22T11:37:04;7.90;;;4.47;;
3849;SDS011;1940;51.052;13.678;2024-03-22T11:39:35;8.63;;;4.00;;
3849;SDS011;1940;51.052;13.678;2024-03-22T11:42:04;8.43;;;4.27;;
3849;SDS011;1940;51.052;13.678;2024-03-22T11:47:53;5.73;;;3.70;;
3849;SDS011;1940;51.052;13.678;2024-03-22T11:50:19;6.43;;;3.80;;
3849;SDS011;1940;51.052;13.678;2024-03-22T11:52:44;6.57;;;4.10;;
3849;SDS011;1940;51.052;13.678;2024-03-22T11:55:13;6.97;;;3.90;;
3849;SDS011;1940;51.052;13.678;2024-03-22T11:57:39;7.77;;;4.03;;
3849;SDS011;1940;51.052;13.678;2024-03-22T12:00:05;6.73;;;3.90;;
3849;SDS011;1940;51.052;13.678;2024-03-22T12:02:35;8.80;;;4.10;;
3849;SDS011;1940;51.052;13.678;2024-03-22T12:05:01;6.10;;;3.70;;
3849;SDS011;1940;51.052;13.678;2024-03-22T12:07:28;7.63;;;4.30;;
3849;SDS011;1940;51.052;13.678;2024-03-22T12:09:53;7.33;;;4.27;;
3849;SDS011;1940;51.052;13.678;2024-03-22T12:12:20;6.93;;;3.87;;
3849;SDS011;1940;51.052;13.678;2024-03-22T12:14:47;9.23;;;4.53;;
3849;SDS011;1940;51.052;13.678;2024-03-22T12:17:15;9.37;;;4.43;;
3849;SDS011;1940;51.052;13.678;2024-03-22T12:19:41;8.13;;;4.60;;
3849;SDS011;1940;51.052;13.678;2024-03-22T12:22:06;9.03;;;5.00;;
3849;SDS011;1940;51.052;13.678;2024-03-22T12:24:32;7.70;;;4.13;;
3849;SDS011;1940;51.052;13.678;2024-03-22T12:26:57;8.23;;;5.07;;
3849;SDS011;1940;51.052;13.678;2024-03-22T12:29:23;7.67;;;4.17;;
3849;SDS011;1940;51.052;13.678;2024-03-22T12:31:49;5.97;;;4.13;;
3849;SDS011;1940;51.052;13.678;2024-03-22T12:34:15;9.67;;;4.23;;
3849;SDS011;1940;51.052;13.678;2024-03-22T12:36:41;7.17;;;4.33;;
3849;SDS011;1940;51.052;13.678;2024-03-22T12:39:07;11.07;;;4.83;;
3849;SDS011;1940;51.052;13.678;2024-03-22T12:41:33;8.47;;;4.60;;
3849;SDS011;1940;51.052;13.678;2024-03-22T12:43:59;9.30;;;4.60;;
3849;SDS011;1940;51.052;13.678;2024-03-22T12:46:25;9.07;;;4.70;;
3849;SDS011;1940;51.052;13.678;2024-03-22T12:48:51;9.80;;;4.83;;
3849;SDS011;1940;51.052;13.678;2024-03-22T12:51:16;7.07;;;4.57;;
3849;SDS011;1940;51.052;13.678;2024-03-22T12:53:42;8.23;;;4.80;;
3849;SDS011;1940;51.052;13.678;2024-03-22T12:56:07;10.60;;;5.00;;
3849;SDS011;1940;51.052;13.678;2024-03-22T12:58:33;10.50;;;4.90;;
3849;SDS011;1940;51.052;13.678;2024-03-22T13:00:59;8.90;;;5.33;;
3849;SDS011;1940;51.052;13.678;2024-03-22T13:03:26;9.80;;;5.00;;
3849;SDS011;1940;51.052;13.678;2024-03-22T13:05:52;8.93;;;4.60;;
3849;SDS011;1940;51.052;13.678;2024-03-22T13:08:17;8.00;;;4.50;;
3849;SDS011;1940;51.052;13.678;2024-03-22T13:10:44;7.80;;;4.50;;
3849;SDS011;1940;51.052;13.678;2024-03-22T13:13:10;12.50;;;4.00;;
3849;SDS011;1940;51.052;13.678;2024-03-22T13:15:36;7.80;;;4.80;;
3849;SDS011;1940;51.052;13.678;2024-03-22T13:18:05;8.63;;;4.53;;
3849;SDS011;1940;51.052;13.678;2024-03-22T13:20:30;7.90;;;4.53;;
3849;SDS011;1940;51.052;13.678;2024-03-22T13:22:56;11.67;;;5.30;;
3849;SDS011;1940;51.052;13.678;2024-03-22T13:25:21;8.40;;;4.70;;
3849;SDS011;1940;51.052;13.678;2024-03-22T13:27:47;8.97;;;5.20;;
3849;SDS011;1940;51.052;13.678;2024-03-22T13:30:12;8.30;;;4.87;;
3849;SDS011;1940;51.052;13.678;2024-03-22T13:32:39;7.87;;;4.70;;
3849;SDS011;1940;51.052;13.678;2024-03-22T13:35:05;9.13;;;4.97;;
3849;SDS011;1940;51.052;13.678;2024-03-22T13:37:31;8.47;;;5.07;;
3849;SDS011;1940;51.052;13.678;2024-03-22T13:39:57;10.37;;;4.87;;
3849;SDS011;1940;51.052;13.678;2024-03-22T13:42:22;8.00;;;4.63;;
3849;SDS011;1940;51.052;13.678;2024-03-22T13:44:48;8.40;;;4.93;;
3849;SDS011;1940;51.052;13.678;2024-03-22T13:47:13;7.47;;;4.43;;
3849;SDS011;1940;51.052;13.678;2024-03-22T13:49:39;8.70;;;5.30;;
3849;SDS011;1940;51.052;13.678;2024-03-22T13:52:06;8.63;;;5.40;;
3849;SDS011;1940;51.052;13.678;2024-03-22T13:54:32;7.70;;;5.17;;
3849;SDS011;1940;51.052;13.678;2024-03-22T13:56:57;11.23;;;5.10;;
3849;SDS011;1940;51.052;13.678;2024-03-22T13:59:23;9.50;;;5.30;;
3849;SDS011;1940;51.052;13.678;2024-03-22T14:01:49;7.50;;;5.13;;
3849;SDS011;1940;51.052;13.678;2024-03-22T14:04:14;10.33;;;5.57;;
3849;SDS011;1940;51.052;13.678;2024-03-22T14:06:40;10.20;;;5.57;;
3849;SDS011;1940;51.052;13.678;2024-03-22T14:09:07;9.20;;;5.33;;
3849;SDS011;1940;51.052;13.678;2024-03-22T14:11:35;10.20;;;5.80;;
3849;SDS011;1940;51.052;13.678;2024-03-22T14:14:01;11.70;;;5.70;;
3849;SDS011;1940;51.052;13.678;2024-03-22T14:16:27;9.73;;;5.97;;
3849;SDS011;1940;51.052;13.678;2024-03-22T14:18:52;8.20;;;4.83;;
3849;SDS011;1940;51.052;13.678;2024-03-22T14:21:18;8.33;;;5.40;;
3849;SDS011;1940;51.052;13.678;2024-03-22T14:23:45;12.07;;;5.47;;
3849;SDS011;1940;51.052;13.678;2024-03-22T14:26:11;11.07;;;5.30;;
3849;SDS011;1940;51.052;13.678;2024-03-22T14:28:37;9.60;;;5.47;;
3849;SDS011;1940;51.052;13.678;2024-03-22T14:31:04;8.60;;;4.93;;
3849;SDS011;1940;51.052;13.678;2024-03-22T14:33:37;11.33;;;5.40;;
3849;SDS011;1940;51.052;13.678;2024-03-22T14:36:03;11.23;;;6.17;;
3849;SDS011;1940;51.052;13.678;2024-03-22T14:38:29;9.00;;;5.07;;
3849;SDS011;1940;51.052;13.678;2024-03-22T14:40:56;8.43;;;4.73;;
3849;SDS011;1940;51.052;13.678;2024-03-22T14:43:23;8.70;;;5.20;;
3849;SDS011;1940;51.052;13.678;2024-03-22T14:45:49;8.00;;;4.90;;
3849;SDS011;1940;51.052;13.678;2024-03-22T14:48:19;9.83;;;5.27;;